»·PEaware :: N704YA KSFF-CAD4

N704YA :: KSFF-CAD4

FLIGHT INFORMATION

Flight Status: Arrived
Operator: Privately registered:
United States
More flights under this callsign
Pilot: Wayne R. (17783)
Aircraft: CESSNA 152 AEROBAT
(C152)
More flights by this aircraft type
Origin: KSFF Felts
United States
Destination: CAD4 Trail
Canada
More flights between these airports :: More routes between these airports
Route:
File this flight plan on PilotEdge
Remarks:
Altitude:
(Current/Filed)
5,500ft
Speed:
(Current/Filed)
100kts
Departed: 13-Dec-20 01:19 PM
Arrived: 13-Dec-20 02:37 PM
Distance/Time
Traveled:
88nm/1:18
Distance/Time
To Go:
Arrived

Flight Plot

Page will automatically refresh every two minutes.

Flight plan parsing failed; only flown route is shown


Map Options




Map Legend


Flown Route
Filed Route
Departure Airport
Arrival Airport
Navaid (VOR, NDB)
Fix

Horizontal Profiles

Position Reports

Time Latitude Longitude Heading Altitude Ground
Speed
13-Dec-20 13:14 47.680512 -117.320865 237 1954ft 0kts
13-Dec-20 13:15 0.000408 0.013975 359 3ft 0kts
13-Dec-20 13:18 47.671322 -117.304903 89 2678ft 91kts
13-Dec-20 13:19 47.674306 -117.266102 81 3146ft 99kts
13-Dec-20 13:20 47.692440 -117.241056 357 3522ft 103kts
13-Dec-20 13:21 47.721413 -117.241328 1 3701ft 104kts
13-Dec-20 13:22 47.750355 -117.238175 5 3872ft 104kts
13-Dec-20 13:23 47.778459 -117.226420 11 4026ft 104kts
13-Dec-20 13:24 47.807381 -117.219874 9 4146ft 105kts
13-Dec-20 13:25 47.834972 -117.217222 348 4476ft 98kts
13-Dec-20 13:26 47.862062 -117.225701 348 4762ft 100kts
13-Dec-20 13:27 47.888862 -117.214510 33 4981ft 103kts
13-Dec-20 13:28 47.913160 -117.191760 35 5196ft 102kts
13-Dec-20 13:29 47.934392 -117.162700 48 5481ft 104kts
13-Dec-20 13:30 47.950298 -117.126049 63 5638ft 109kts
13-Dec-20 13:31 47.960391 -117.082713 71 5621ft 112kts
13-Dec-20 13:32 47.970366 -117.039073 71 5600ft 112kts
13-Dec-20 13:33 47.973199 -116.992706 99 5531ft 113kts
13-Dec-20 13:34 47.975122 -116.947104 62 5520ft 112kts
13-Dec-20 13:35 47.996501 -116.914549 30 5445ft 111kts
13-Dec-20 13:36 48.023458 -116.893302 23 5410ft 109kts
13-Dec-20 13:37 48.050146 -116.871062 11 5308ft 108kts
13-Dec-20 13:38 48.079531 -116.872539 341 5243ft 106kts
13-Dec-20 13:39 48.106283 -116.888970 333 5301ft 103kts
13-Dec-20 13:40 48.130742 -116.909449 303 5326ft 102kts
13-Dec-20 13:41 48.137727 -116.949416 298 5412ft 103kts
13-Dec-20 13:42 48.161020 -116.984619 320 4182ft 126kts
13-Dec-20 13:43 48.184554 -117.016392 314 3786ft 112kts
13-Dec-20 13:44 48.210509 -117.041425 342 3378ft 112kts
13-Dec-20 13:45 48.228831 -117.072802 286 2976ft 104kts
13-Dec-20 13:46 48.238529 -117.113989 281 2938ft 105kts
13-Dec-20 13:47 48.243561 -117.156833 269 2954ft 104kts
13-Dec-20 13:48 48.248888 -117.198987 296 3035ft 103kts
13-Dec-20 13:49 48.261690 -117.236433 296 3165ft 101kts
13-Dec-20 13:50 48.279247 -117.267836 339 3246ft 100kts
13-Dec-20 13:51 48.307013 -117.276169 348 3329ft 101kts
13-Dec-20 13:52 48.335035 -117.282823 355 3385ft 104kts
13-Dec-20 13:53 48.363981 -117.280101 353 3370ft 104kts
13-Dec-20 13:54 48.392248 -117.289562 356 3369ft 103kts
13-Dec-20 13:55 48.421535 -117.288934 3 3337ft 105kts
13-Dec-20 13:56 48.450477 -117.281975 15 3293ft 106kts
13-Dec-20 13:57 48.478789 -117.269178 20 3253ft 107kts
13-Dec-20 13:59 48.508074 -117.270372 350 3227ft 106kts
13-Dec-20 14:00 48.530149 -117.298722 302 3214ft 104kts
13-Dec-20 14:01 48.548360 -117.332117 322 3282ft 102kts
13-Dec-20 14:02 48.573972 -117.351315 332 3340ft 103kts
13-Dec-20 14:03 48.600015 -117.366831 13 3364ft 104kts
13-Dec-20 14:04 48.628590 -117.362399 349 3113ft 103kts
13-Dec-20 14:05 48.655671 -117.375608 335 2877ft 101kts
13-Dec-20 14:06 48.679395 -117.396984 325 2904ft 102kts
13-Dec-20 14:07 48.700023 -117.410303 349 2203ft 71kts
13-Dec-20 14:08 48.712995 -117.414696 348 2110ft 17kts
13-Dec-20 14:09 48.713456 -117.414190 157 2111ft 0kts
13-Dec-20 14:10 48.713456 -117.414190 157 2111ft 0kts
13-Dec-20 14:11 48.713456 -117.414190 157 2111ft 0kts
13-Dec-20 14:12 48.713456 -117.414190 157 2111ft 0kts
13-Dec-20 14:13 48.713456 -117.414190 157 2111ft 0kts
13-Dec-20 14:14 48.713456 -117.414190 157 2111ft 0kts
13-Dec-20 14:15 48.713632 -117.414775 211 2111ft 7kts
13-Dec-20 14:16 48.704214 -117.402768 41 2504ft 76kts
13-Dec-20 14:16 48.723187 -117.403805 350 2876ft 95kts
13-Dec-20 14:18 48.755052 -117.406649 3 3222ft 101kts
13-Dec-20 14:18 48.772889 -117.403299 8 3343ft 101kts
13-Dec-20 14:19 48.789557 -117.397811 12 3508ft 100kts
13-Dec-20 14:20 48.817463 -117.387079 11 3617ft 106kts
13-Dec-20 14:21 48.845627 -117.376100 16 3714ft 104kts
13-Dec-20 14:22 48.873185 -117.359926 28 3685ft 107kts
13-Dec-20 14:23 48.899914 -117.340195 30 3660ft 107kts
13-Dec-20 14:24 48.929285 -117.330128 6 3449ft 111kts
13-Dec-20 14:25 48.958690 -117.332304 349 3445ft 107kts
13-Dec-20 14:26 48.987122 -117.343541 343 3552ft 105kts
13-Dec-20 14:27 49.013762 -117.362434 325 3586ft 106kts
13-Dec-20 14:28 49.036725 -117.390510 310 3639ft 106kts
13-Dec-20 14:29 49.046098 -117.433038 276 3685ft 106kts
13-Dec-20 14:30 49.040227 -117.478692 250 3272ft 110kts
13-Dec-20 14:31 49.029622 -117.516895 244 3247ft 94kts
13-Dec-20 14:32 49.018546 -117.553531 242 3197ft 95kts
13-Dec-20 14:33 49.008077 -117.591424 275 2881ft 101kts
13-Dec-20 14:34 49.029618 -117.608061 355 2026ft 72kts
13-Dec-20 14:35 49.048578 -117.608946 355 1443ft 65kts
13-Dec-20 14:36 49.056216 -117.608191 278 1424ft 0kts
13-Dec-20 14:37 49.056216 -117.608191 278 1424ft 0kts
13-Dec-20 14:38 49.056216 -117.608191 278 1424ft 0kts
13-Dec-20 14:39 49.056216 -117.608191 278 1424ft 0kts
13-Dec-20 14:40 49.056216 -117.608191 278 1424ft 0kts
13-Dec-20 14:41 49.056216 -117.608191 278 1424ft 0kts
13-Dec-20 14:42 49.056216 -117.608191 278 1424ft 0kts
13-Dec-20 14:43 49.056216 -117.608191 278 1424ft 0kts
13-Dec-20 14:44 49.056216 -117.608191 278 1424ft 0kts
13-Dec-20 14:46 49.056226 -117.608282 307 1424ft 0kts
13-Dec-20 14:46 49.052278 -117.609273 177 1424ft 27kts
13-Dec-20 14:47 49.058126 -117.609503 356 1547ft 79kts
13-Dec-20 14:48 49.082445 -117.619485 313 1924ft 99kts
13-Dec-20 14:49 49.095958 -117.655262 286 2185ft 99kts
13-Dec-20 14:50 49.102570 -117.697167 287 2240ft 101kts
13-Dec-20 14:51 49.121342 -117.729151 327 2180ft 104kts

Navigation Log

Ident Type
Flight plan parsing failed, navigation log unavailable